Time;durP1;ratioP1;P1;durP2;ratioP2;P2;SDS_P1;SDS_P2;PMS_P1;PMS_P2;Temp;Humidity;BMP_temperature;BMP_pressure;BME280_temperature;BME280_humidity;BME280_pressure;Samples;Min_cycle;Max_cycle;Signal;HPM_P1;HPM_P2
2024/01/23 00:01:20;;;;;;;3.05;1.30;;;;;;;;;;5037337;28;20407;-79
2024/01/23 00:03:46;;;;;;;3.55;1.25;;;;;;;;;;5037185;28;21083;-80
2024/01/23 00:06:12;;;;;;;4.20;1.13;;;;;;;;;;5037163;28;20379;-79
2024/01/23 00:08:38;;;;;;;3.78;1.20;;;;;;;;;;5036493;28;20398;-80
2024/01/23 00:11:04;;;;;;;4.55;1.38;;;;;;;;;;5036791;28;20387;-80
2024/01/23 00:13:30;;;;;;;4.57;1.33;;;;;;;;;;5037148;28;20390;-79
2024/01/23 00:15:56;;;;;;;2.25;1.00;;;;;;;;;;5037170;28;20792;-79
2024/01/23 00:18:23;;;;;;;4.15;1.27;;;;;;;;;;5037001;28;20495;-79
2024/01/23 00:20:49;;;;;;;3.22;1.25;;;;;;;;;;5037145;28;21218;-79
2024/01/23 00:23:15;;;;;;;2.67;1.10;;;;;;;;;;5041436;28;20851;-79
2024/01/23 00:29:54;;;;;;;4.65;1.00;;;;;;;;;;5072810;28;20352;-79
2024/01/23 00:32:19;;;;;;;4.63;1.20;;;;;;;;;;5072069;28;20389;-79
2024/01/23 00:34:45;;;;;;;2.80;0.93;;;;;;;;;;5072360;28;20472;-79
2024/01/23 00:37:11;;;;;;;4.63;1.20;;;;;;;;;;5073773;28;20381;-79
2024/01/23 00:39:38;;;;;;;3.58;1.20;;;;;;;;;;5075571;28;20384;-79
2024/01/23 00:42:05;;;;;;;4.00;1.10;;;;;;;;;;5074859;28;20377;-80
2024/01/23 00:44:31;;;;;;;2.65;1.00;;;;;;;;;;5073943;28;20472;-79
2024/01/23 00:46:57;;;;;;;3.92;0.90;;;;;;;;;;5073748;28;20923;-79
2024/01/23 00:49:23;;;;;;;3.63;1.37;;;;;;;;;;5074878;28;20423;-79
2024/01/23 00:51:49;;;;;;;2.15;1.02;;;;;;;;;;5075197;28;20377;-79
2024/01/23 00:54:14;;;;;;;3.10;1.10;;;;;;;;;;5074476;28;20881;-79
2024/01/23 00:56:42;;;;;;;4.00;1.17;;;;;;;;;;5073099;28;20389;-80
2024/01/23 00:59:09;;;;;;;3.58;1.20;;;;;;;;;;5071829;28;20388;-80
2024/01/23 01:01:35;;;;;;;4.10;1.20;;;;;;;;;;5071093;28;20376;-79
2024/01/23 01:04:02;;;;;;;3.17;1.40;;;;;;;;;;5071345;28;20381;-79
2024/01/23 01:06:28;;;;;;;4.55;1.30;;;;;;;;;;5074842;28;20376;-80
2024/01/23 01:08:54;;;;;;;2.87;1.10;;;;;;;;;;5073738;28;20485;-79
2024/01/23 01:11:20;;;;;;;2.40;0.85;;;;;;;;;;5075211;28;20388;-80
2024/01/23 01:13:46;;;;;;;3.65;1.20;;;;;;;;;;5075663;28;20423;-79
2024/01/23 01:16:12;;;;;;;3.42;1.00;;;;;;;;;;5075931;28;20455;-80
2024/01/23 01:18:40;;;;;;;3.90;1.10;;;;;;;;;;5075822;28;20388;-80
2024/01/23 01:21:07;;;;;;;3.97;1.20;;;;;;;;;;5075233;28;20407;-80
2024/01/23 01:23:33;;;;;;;3.78;1.10;;;;;;;;;;5072192;28;20451;-80
2024/01/23 01:25:59;;;;;;;5.43;1.48;;;;;;;;;;5072405;28;20377;-79
2024/01/23 01:28:25;;;;;;;3.20;1.30;;;;;;;;;;5080500;28;20442;-79
2024/01/23 01:30:51;;;;;;;2.38;1.10;;;;;;;;;;5092415;28;20755;-80
2024/01/23 01:33:18;;;;;;;3.28;1.00;;;;;;;;;;5092887;28;20379;-79
2024/01/23 01:35:44;;;;;;;4.93;1.35;;;;;;;;;;5093674;28;20378;-80
2024/01/23 01:38:10;;;;;;;2.97;1.35;;;;;;;;;;5093066;28;20383;-80
2024/01/23 01:40:36;;;;;;;5.57;1.85;;;;;;;;;;5082745;28;20787;-80
2024/01/23 01:43:02;;;;;;;4.03;1.50;;;;;;;;;;5079884;28;20380;-80
2024/01/23 01:45:28;;;;;;;3.22;1.70;;;;;;;;;;5081049;28;20395;-80
2024/01/23 01:47:54;;;;;;;4.87;1.90;;;;;;;;;;5080104;28;20436;-79
2024/01/23 01:50:20;;;;;;;4.25;1.60;;;;;;;;;;5079320;28;20368;-80
2024/01/23 01:52:47;;;;;;;4.82;1.58;;;;;;;;;;5079109;28;20371;-80
2024/01/23 01:55:13;;;;;;;8.70;1.83;;;;;;;;;;5079036;28;20368;-79
2024/01/23 01:57:42;;;;;;;6.18;1.60;;;;;;;;;;5079242;28;20710;-80
2024/01/23 02:00:11;;;;;;;4.53;1.60;;;;;;;;;;5077122;28;20387;-80
2024/01/23 02:02:40;;;;;;;6.38;1.73;;;;;;;;;;5081101;28;20380;-80
2024/01/23 02:05:06;;;;;;;7.15;1.42;;;;;;;;;;5076799;28;20372;-79
2024/01/23 02:07:33;;;;;;;5.05;1.30;;;;;;;;;;5076908;28;20391;-79
2024/01/23 02:10:00;;;;;;;3.75;1.50;;;;;;;;;;5076794;28;20383;-80
2024/01/23 02:12:25;;;;;;;4.50;1.40;;;;;;;;;;5074975;28;20454;-80
2024/01/23 02:14:51;;;;;;;5.43;1.65;;;;;;;;;;5074478;28;20407;-79
2024/01/23 02:17:17;;;;;;;5.82;1.77;;;;;;;;;;5074795;28;20372;-80
2024/01/23 02:19:44;;;;;;;3.90;1.58;;;;;;;;;;5074727;28;20376;-79
2024/01/23 02:22:09;;;;;;;6.18;1.92;;;;;;;;;;5074501;28;20376;-79
2024/01/23 02:24:35;;;;;;;7.03;1.80;;;;;;;;;;5073923;28;20386;-79
2024/01/23 02:27:01;;;;;;;6.25;1.63;;;;;;;;;;5073897;28;20390;-79
2024/01/23 02:29:28;;;;;;;6.15;1.33;;;;;;;;;;5074028;28;20487;-79
2024/01/23 02:31:54;;;;;;;4.10;1.20;;;;;;;;;;5056366;28;20384;-80
2024/01/23 02:34:21;;;;;;;4.95;1.73;;;;;;;;;;5074479;28;20700;-79
2024/01/23 02:36:47;;;;;;;7.28;1.75;;;;;;;;;;5074882;28;20838;-79
2024/01/23 02:39:13;;;;;;;6.60;1.90;;;;;;;;;;5075516;28;20446;-79
2024/01/23 02:41:39;;;;;;;5.15;1.60;;;;;;;;;;5075846;28;20486;-80
2024/01/23 02:44:05;;;;;;;6.50;1.17;;;;;;;;;;5075882;28;20407;-79
2024/01/23 02:46:31;;;;;;;6.40;1.73;;;;;;;;;;5075410;28;20392;-79
2024/01/23 02:48:57;;;;;;;5.88;1.90;;;;;;;;;;5056760;28;20403;-79
2024/01/23 02:51:23;;;;;;;4.97;1.40;;;;;;;;;;5074520;28;20388;-79
2024/01/23 02:53:49;;;;;;;6.03;1.30;;;;;;;;;;5074410;28;20391;-79
2024/01/23 02:56:15;;;;;;;6.28;1.63;;;;;;;;;;5074969;28;20916;-79
2024/01/23 02:58:41;;;;;;;7.03;1.60;;;;;;;;;;5074360;28;20396;-79
2024/01/23 03:01:07;;;;;;;4.88;1.20;;;;;;;;;;5074457;28;20470;-79
2024/01/23 03:03:33;;;;;;;6.18;1.38;;;;;;;;;;5074728;28;20407;-79
2024/01/23 03:05:59;;;;;;;6.07;1.55;;;;;;;;;;5074421;28;20372;-79
2024/01/23 03:08:25;;;;;;;8.07;1.67;;;;;;;;;;5075386;28;20483;-79
2024/01/23 03:10:51;;;;;;;6.88;1.70;;;;;;;;;;5074703;28;20404;-79
2024/01/23 03:13:18;;;;;;;5.07;1.65;;;;;;;;;;5074462;28;20371;-79
2024/01/23 03:15:44;;;;;;;5.30;1.10;;;;;;;;;;5074759;28;20391;-79
2024/01/23 03:18:11;;;;;;;6.55;1.48;;;;;;;;;;5074555;28;20379;-79
2024/01/23 03:20:37;;;;;;;6.40;1.45;;;;;;;;;;5074142;28;20410;-79
2024/01/23 03:23:03;;;;;;;5.85;1.55;;;;;;;;;;5074191;28;20375;-79
2024/01/23 03:25:29;;;;;;;5.80;1.33;;;;;;;;;;5074704;28;20385;-79
2024/01/23 03:27:55;;;;;;;7.20;1.70;;;;;;;;;;5073485;28;20495;-79
2024/01/23 03:30:30;;;;;;;5.15;1.50;;;;;;;;;;5073906;28;20376;-79
2024/01/23 03:32:57;;;;;;;6.45;1.52;;;;;;;;;;5074052;28;20379;-79
2024/01/23 03:35:24;;;;;;;6.70;1.60;;;;;;;;;;5073955;28;20927;-79
2024/01/23 03:37:50;;;;;;;5.80;1.40;;;;;;;;;;5073893;28;20781;-79
2024/01/23 03:40:16;;;;;;;5.57;1.38;;;;;;;;;;5074135;28;20862;-79
2024/01/23 03:42:42;;;;;;;5.07;1.55;;;;;;;;;;5074117;28;20861;-79
2024/01/23 03:45:08;;;;;;;4.47;1.35;;;;;;;;;;5074875;28;20384;-79
2024/01/23 03:47:34;;;;;;;3.60;1.38;;;;;;;;;;5073903;28;20957;-79
2024/01/23 03:50:00;;;;;;;6.40;1.60;;;;;;;;;;5074650;28;20376;-79
2024/01/23 03:52:26;;;;;;;6.35;1.30;;;;;;;;;;5075242;28;20717;-79
2024/01/23 03:54:53;;;;;;;5.15;1.48;;;;;;;;;;5075695;28;20380;-79
2024/01/23 03:57:19;;;;;;;4.78;1.58;;;;;;;;;;5076875;28;20440;-79
2024/01/23 03:59:46;;;;;;;6.40;1.70;;;;;;;;;;5076550;28;20890;-80
2024/01/23 04:02:11;;;;;;;5.53;1.50;;;;;;;;;;5078800;28;20385;-80
2024/01/23 04:04:38;;;;;;;4.18;1.30;;;;;;;;;;5072162;28;20715;-79
2024/01/23 04:07:05;;;;;;;5.20;1.30;;;;;;;;;;5058741;28;20399;-79
2024/01/23 04:09:31;;;;;;;5.88;1.63;;;;;;;;;;5057498;28;20401;-80
2024/01/23 04:11:57;;;;;;;5.20;1.50;;;;;;;;;;5058269;28;20378;-79
2024/01/23 04:14:23;;;;;;;5.40;1.50;;;;;;;;;;5058903;28;20374;-80
2024/01/23 04:16:49;;;;;;;5.45;1.55;;;;;;;;;;5057886;28;20374;-79
2024/01/23 04:19:15;;;;;;;7.20;1.50;;;;;;;;;;5057701;28;20400;-80
2024/01/23 04:21:41;;;;;;;4.57;1.42;;;;;;;;;;5059800;28;20393;-79
2024/01/23 04:24:07;;;;;;;5.55;1.80;;;;;;;;;;5059690;28;20423;-79
2024/01/23 04:26:33;;;;;;;5.45;1.55;;;;;;;;;;5064570;28;20378;-79
2024/01/23 04:28:59;;;;;;;5.03;1.65;;;;;;;;;;5079162;28;20448;-79
2024/01/23 04:31:25;;;;;;;5.38;1.60;;;;;;;;;;5078762;28;20388;-79
2024/01/23 04:33:52;;;;;;;5.65;1.63;;;;;;;;;;5078083;28;20375;-80
2024/01/23 04:36:19;;;;;;;5.20;1.50;;;;;;;;;;5076817;28;20745;-79
2024/01/23 04:38:45;;;;;;;5.68;1.50;;;;;;;;;;5077912;28;20387;-80
2024/01/23 04:41:11;;;;;;;5.60;1.70;;;;;;;;;;5077619;28;20449;-79
2024/01/23 04:43:38;;;;;;;5.82;1.40;;;;;;;;;;5077265;28;20800;-79
2024/01/23 04:46:05;;;;;;;3.57;1.43;;;;;;;;;;5076914;28;20458;-79
2024/01/23 04:48:31;;;;;;;3.23;1.27;;;;;;;;;;5076677;28;20407;-79
2024/01/23 04:50:57;;;;;;;2.88;0.90;;;;;;;;;;5076703;28;20380;-80
2024/01/23 04:53:27;;;;;;;3.72;0.95;;;;;;;;;;5077204;28;20384;-79
2024/01/23 04:55:53;;;;;;;2.95;0.70;;;;;;;;;;5078426;28;20418;-79
2024/01/23 04:58:19;;;;;;;3.57;0.90;;;;;;;;;;5078226;28;20913;-80
2024/01/23 05:00:45;;;;;;;2.33;0.93;;;;;;;;;;5078926;28;20371;-79
2024/01/23 05:03:11;;;;;;;2.80;0.88;;;;;;;;;;5077961;28;20380;-79
2024/01/23 05:05:37;;;;;;;1.37;0.60;;;;;;;;;;5077640;28;20435;-80
2024/01/23 05:08:03;;;;;;;3.15;0.80;;;;;;;;;;5076941;28;20403;-79
2024/01/23 05:10:29;;;;;;;1.42;0.60;;;;;;;;;;5076587;28;20410;-79
2024/01/23 05:12:55;;;;;;;2.67;0.80;;;;;;;;;;5076865;28;20384;-79
2024/01/23 05:15:21;;;;;;;2.03;0.77;;;;;;;;;;5078637;28;20372;-79
2024/01/23 05:17:47;;;;;;;1.77;0.67;;;;;;;;;;5079534;28;20364;-79
2024/01/23 05:20:13;;;;;;;2.17;0.80;;;;;;;;;;5080178;28;20726;-80
2024/01/23 05:22:39;;;;;;;3.85;0.90;;;;;;;;;;5076240;28;20372;-80
2024/01/23 05:25:05;;;;;;;2.83;0.77;;;;;;;;;;5076292;28;20368;-80
2024/01/23 05:27:31;;;;;;;1.90;0.50;;;;;;;;;;5075797;28;20367;-80
2024/01/23 05:29:57;;;;;;;2.33;0.73;;;;;;;;;;5076620;28;20491;-80
2024/01/23 05:32:23;;;;;;;2.13;0.90;;;;;;;;;;5076935;28;20433;-80
2024/01/23 05:34:49;;;;;;;2.43;0.70;;;;;;;;;;5077248;28;20838;-80
2024/01/23 05:37:15;;;;;;;2.15;0.65;;;;;;;;;;5076810;28;20386;-79
2024/01/23 05:39:41;;;;;;;3.20;0.68;;;;;;;;;;5076368;28;20817;-79
2024/01/23 05:42:07;;;;;;;2.65;0.90;;;;;;;;;;5076506;28;20376;-79
2024/01/23 05:44:33;;;;;;;2.08;0.75;;;;;;;;;;5058790;28;20451;-80
2024/01/23 05:46:59;;;;;;;3.08;0.60;;;;;;;;;;5077478;28;20391;-79
2024/01/23 05:49:25;;;;;;;2.75;0.70;;;;;;;;;;5078459;28;20422;-80
2024/01/23 05:51:51;;;;;;;2.55;0.70;;;;;;;;;;5078086;28;20841;-79
2024/01/23 05:54:17;;;;;;;2.83;0.98;;;;;;;;;;5079985;28;20368;-80
2024/01/23 05:56:43;;;;;;;2.63;0.60;;;;;;;;;;5077352;28;20371;-80
2024/01/23 05:59:09;;;;;;;4.15;1.15;;;;;;;;;;5080184;28;20812;-80
2024/01/23 06:01:35;;;;;;;4.00;1.83;;;;;;;;;;5079032;28;20387;-80
2024/01/23 06:04:01;;;;;;;2.87;1.00;;;;;;;;;;5078560;28;20415;-80
2024/01/23 06:06:27;;;;;;;2.58;0.90;;;;;;;;;;5078950;28;20371;-80
2024/01/23 06:08:53;;;;;;;2.85;1.08;;;;;;;;;;5078242;28;20873;-79
2024/01/23 06:11:19;;;;;;;3.08;1.00;;;;;;;;;;5077920;28;20503;-80
2024/01/23 06:13:45;;;;;;;3.85;1.65;;;;;;;;;;5078443;28;20463;-80
2024/01/23 06:16:11;;;;;;;3.50;1.40;;;;;;;;;;5077435;28;20380;-80
2024/01/23 06:18:37;;;;;;;4.78;1.60;;;;;;;;;;5077416;28;20808;-79
2024/01/23 06:21:03;;;;;;;5.13;1.67;;;;;;;;;;5078978;28;20493;-79
2024/01/23 06:23:29;;;;;;;2.95;1.13;;;;;;;;;;5078453;28;20388;-80
2024/01/23 06:25:55;;;;;;;5.17;1.50;;;;;;;;;;5080454;28;20402;-79
2024/01/23 06:28:23;;;;;;;4.45;1.42;;;;;;;;;;5079290;28;20419;-79
2024/01/23 06:30:49;;;;;;;7.68;1.80;;;;;;;;;;5081896;28;20380;-79
2024/01/23 06:33:15;;;;;;;8.20;2.10;;;;;;;;;;5080331;28;20767;-79
2024/01/23 06:35:41;;;;;;;8.40;1.70;;;;;;;;;;5082854;28;20380;-79
2024/01/23 06:38:07;;;;;;;6.90;1.90;;;;;;;;;;5083202;28;20758;-81
2024/01/23 06:40:33;;;;;;;5.45;1.70;;;;;;;;;;5082018;28;20387;-80
2024/01/23 06:42:59;;;;;;;8.68;2.00;;;;;;;;;;5081968;28;20383;-80
2024/01/23 06:45:25;;;;;;;6.82;1.80;;;;;;;;;;5083013;28;20394;-81
2024/01/23 06:47:51;;;;;;;6.43;1.88;;;;;;;;;;5080528;28;20371;-81
2024/01/23 06:50:17;;;;;;;6.57;1.87;;;;;;;;;;5080662;28;20419;-81
2024/01/23 06:52:43;;;;;;;6.90;1.95;;;;;;;;;;5080443;28;20876;-81
2024/01/23 06:55:09;;;;;;;6.35;2.03;;;;;;;;;;5080289;28;20830;-81
2024/01/23 06:57:35;;;;;;;4.78;1.55;;;;;;;;;;5081227;28;20418;-81
2024/01/23 07:00:03;;;;;;;8.10;2.10;;;;;;;;;;5080714;28;20384;-80
2024/01/23 07:02:29;;;;;;;7.03;2.00;;;;;;;;;;5079555;28;20387;-80
2024/01/23 07:04:55;;;;;;;5.40;1.77;;;;;;;;;;5080202;28;20384;-80
2024/01/23 07:07:21;;;;;;;5.45;1.80;;;;;;;;;;5080587;28;20390;-80
2024/01/23 07:09:48;;;;;;;7.13;2.00;;;;;;;;;;5079074;28;20409;-80
2024/01/23 07:12:16;;;;;;;7.63;1.67;;;;;;;;;;5080079;28;20412;-80
2024/01/23 07:14:42;;;;;;;7.05;1.85;;;;;;;;;;5080242;28;20391;-80
2024/01/23 07:17:08;;;;;;;7.35;2.05;;;;;;;;;;5081364;28;20379;-81
2024/01/23 07:19:35;;;;;;;5.05;1.73;;;;;;;;;;5080571;28;20888;-80
2024/01/23 07:22:00;;;;;;;9.35;2.80;;;;;;;;;;5080927;28;20387;-81
2024/01/23 07:24:27;;;;;;;6.75;2.72;;;;;;;;;;5080847;28;20379;-81
2024/01/23 07:26:52;;;;;;;6.28;2.03;;;;;;;;;;5079868;28;20380;-81
2024/01/23 07:29:18;;;;;;;8.43;1.90;;;;;;;;;;5080161;28;20507;-80
2024/01/23 07:31:45;;;;;;;6.57;1.50;;;;;;;;;;5078435;28;20413;-80
2024/01/23 07:34:11;;;;;;;5.95;1.50;;;;;;;;;;5078716;28;20379;-80
2024/01/23 07:36:37;;;;;;;5.30;1.40;;;;;;;;;;5059966;28;20463;-80
2024/01/23 07:39:05;;;;;;;3.63;1.30;;;;;;;;;;5078222;28;20445;-80
2024/01/23 07:41:31;;;;;;;4.10;1.33;;;;;;;;;;5077665;28;20391;-80
2024/01/23 07:43:57;;;;;;;5.68;1.50;;;;;;;;;;5078160;28;20388;-81
2024/01/23 07:46:23;;;;;;;4.00;1.40;;;;;;;;;;5080187;28;20380;-81
2024/01/23 07:48:49;;;;;;;3.67;1.35;;;;;;;;;;5080671;28;20415;-79
2024/01/23 07:51:15;;;;;;;5.03;1.52;;;;;;;;;;5076272;28;20377;-80
2024/01/23 07:53:43;;;;;;;4.05;1.23;;;;;;;;;;5057473;28;20397;-81
2024/01/23 07:56:09;;;;;;;3.92;1.17;;;;;;;;;;5055415;28;20863;-80
2024/01/23 07:58:35;;;;;;;4.47;1.40;;;;;;;;;;5055229;28;20913;-80
2024/01/23 08:01:01;;;;;;;4.07;0.90;;;;;;;;;;5053840;28;20481;-80
2024/01/23 08:03:28;;;;;;;1.88;0.77;;;;;;;;;;5055104;28;20519;-80
2024/01/23 08:05:54;;;;;;;2.38;1.05;;;;;;;;;;5055773;28;20385;-79
2024/01/23 08:08:22;;;;;;;3.53;0.85;;;;;;;;;;5055477;28;20822;-81
2024/01/23 08:10:50;;;;;;;3.63;0.90;;;;;;;;;;5054886;28;20410;-80
2024/01/23 08:13:20;;;;;;;3.10;0.73;;;;;;;;;;5053862;28;20409;-80
2024/01/23 08:15:46;;;;;;;2.42;0.93;;;;;;;;;;5054648;28;20703;-80
2024/01/23 08:18:13;;;;;;;2.27;0.70;;;;;;;;;;5055029;28;20380;-80
2024/01/23 08:20:39;;;;;;;4.38;1.10;;;;;;;;;;5059515;28;20382;-81
2024/01/23 08:23:05;;;;;;;4.35;1.20;;;;;;;;;;5062212;28;20383;-80
2024/01/23 08:25:31;;;;;;;4.68;1.13;;;;;;;;;;5078607;28;20418;-81
2024/01/23 08:27:57;;;;;;;3.03;0.90;;;;;;;;;;5076712;28;20885;-81
2024/01/23 08:30:23;;;;;;;2.28;0.80;;;;;;;;;;5075570;28;20380;-81
2024/01/23 08:32:49;;;;;;;4.03;0.80;;;;;;;;;;5074237;28;20845;-80
2024/01/23 08:35:15;;;;;;;1.13;0.70;;;;;;;;;;5074073;28;20433;-81
2024/01/23 08:37:41;;;;;;;2.90;0.77;;;;;;;;;;5073392;28;20376;-81
2024/01/23 08:40:07;;;;;;;3.45;0.80;;;;;;;;;;5073568;28;20379;-81
2024/01/23 08:42:34;;;;;;;2.72;0.80;;;;;;;;;;5074510;28;20414;-81
2024/01/23 08:45:00;;;;;;;3.60;1.10;;;;;;;;;;5073545;28;20427;-81
2024/01/23 08:47:25;;;;;;;3.00;1.02;;;;;;;;;;5072911;28;20380;-81
2024/01/23 08:49:51;;;;;;;5.15;1.40;;;;;;;;;;5073609;28;20865;-81
2024/01/23 08:52:18;;;;;;;3.93;1.40;;;;;;;;;;5078146;28;20394;-81
2024/01/23 08:54:44;;;;;;;5.13;1.50;;;;;;;;;;5077661;28;20376;-81
2024/01/23 08:57:10;;;;;;;3.85;1.42;;;;;;;;;;5077587;28;20773;-81
2024/01/23 08:59:37;;;;;;;6.95;1.80;;;;;;;;;;5077164;28;20399;-81
2024/01/23 09:02:04;;;;;;;8.88;2.25;;;;;;;;;;5059148;28;20388;-80
2024/01/23 09:04:30;;;;;;;6.68;1.80;;;;;;;;;;5076601;28;20413;-81
2024/01/23 09:06:56;;;;;;;6.50;1.70;;;;;;;;;;5077035;28;20387;-81
2024/01/23 09:09:22;;;;;;;6.70;1.90;;;;;;;;;;5077211;28;20944;-81
2024/01/23 09:11:48;;;;;;;5.22;1.65;;;;;;;;;;5077179;28;20468;-81
2024/01/23 09:14:14;;;;;;;4.47;1.38;;;;;;;;;;5077740;28;20436;-81
2024/01/23 09:16:40;;;;;;;6.03;1.33;;;;;;;;;;5078406;28;20384;-81
2024/01/23 09:19:06;;;;;;;5.57;1.63;;;;;;;;;;5076627;28;20467;-81
2024/01/23 09:21:32;;;;;;;4.15;1.40;;;;;;;;;;5076964;28;20380;-80
2024/01/23 09:23:59;;;;;;;6.90;1.63;;;;;;;;;;5076872;28;20380;-80
2024/01/23 09:26:25;;;;;;;8.10;1.88;;;;;;;;;;5077468;28;20459;-81
2024/01/23 09:28:51;;;;;;;6.80;1.45;;;;;;;;;;5076969;28;20506;-81
2024/01/23 09:31:17;;;;;;;4.93;1.73;;;;;;;;;;5078890;28;20384;-81
2024/01/23 09:33:43;;;;;;;6.50;2.22;;;;;;;;;;5077157;28;20379;-81
2024/01/23 09:36:10;;;;;;;6.97;1.80;;;;;;;;;;5077800;28;20864;-81
2024/01/23 09:38:36;;;;;;;4.13;1.37;;;;;;;;;;5078043;28;20372;-80
2024/01/23 09:41:07;;;;;;;7.38;1.77;;;;;;;;;;5077075;28;20429;-80
2024/01/23 09:43:35;;;;;;;4.93;1.88;;;;;;;;;;5076504;28;20387;-80
2024/01/23 09:46:03;;;;;;;3.58;1.55;;;;;;;;;;5077013;28;20379;-80
2024/01/23 09:48:29;;;;;;;6.15;1.80;;;;;;;;;;5077399;28;20436;-80
2024/01/23 09:50:56;;;;;;;6.30;1.85;;;;;;;;;;5079537;28;20451;-81
2024/01/23 09:53:23;;;;;;;9.18;1.90;;;;;;;;;;5079262;28;20379;-81
2024/01/23 09:55:49;;;;;;;4.50;1.10;;;;;;;;;;5073258;28;21180;-81
2024/01/23 09:58:15;;;;;;;6.10;1.40;;;;;;;;;;5040986;28;20389;-81
2024/01/23 10:00:41;;;;;;;5.30;1.55;;;;;;;;;;5057860;28;20468;-81
2024/01/23 10:03:09;;;;;;;4.45;1.88;;;;;;;;;;5057787;28;20389;-81
2024/01/23 10:05:35;;;;;;;4.57;1.53;;;;;;;;;;5057877;28;20395;-81
2024/01/23 10:08:02;;;;;;;2.90;1.27;;;;;;;;;;5039459;28;20381;-81
2024/01/23 10:10:29;;;;;;;4.78;1.48;;;;;;;;;;5057761;28;20461;-81
2024/01/23 10:12:55;;;;;;;3.92;1.17;;;;;;;;;;5057579;28;20389;-81
2024/01/23 10:15:22;;;;;;;6.63;1.88;;;;;;;;;;5057586;28;20751;-81
2024/01/23 10:17:49;;;;;;;6.90;1.52;;;;;;;;;;5056444;28;20378;-81
2024/01/23 10:20:15;;;;;;;4.70;1.45;;;;;;;;;;5056137;28;20707;-81
2024/01/23 10:22:43;;;;;;;5.95;1.25;;;;;;;;;;5056428;28;20519;-82
2024/01/23 10:25:11;;;;;;;5.43;1.52;;;;;;;;;;5056169;28;20377;-81
2024/01/23 10:27:37;;;;;;;5.68;1.35;;;;;;;;;;5066167;28;20368;-81
2024/01/23 10:30:03;;;;;;;6.47;1.60;;;;;;;;;;5075679;28;20402;-81
2024/01/23 10:32:30;;;;;;;4.43;1.30;;;;;;;;;;5075987;28;20377;-81
2024/01/23 10:34:56;;;;;;;5.40;1.30;;;;;;;;;;5075552;28;20371;-81
2024/01/23 10:37:22;;;;;;;6.68;1.40;;;;;;;;;;5075711;28;20387;-81
2024/01/23 10:39:51;;;;;;;6.00;1.33;;;;;;;;;;5075811;28;20383;-81
2024/01/23 10:42:18;;;;;;;4.23;1.67;;;;;;;;;;5077893;28;20383;-81
2024/01/23 10:44:45;;;;;;;4.55;1.20;;;;;;;;;;5077094;28;20376;-81
2024/01/23 10:47:13;;;;;;;5.57;1.95;;;;;;;;;;5077492;28;20376;-81
2024/01/23 10:49:39;;;;;;;7.25;1.70;;;;;;;;;;5076215;28;20415;-81
2024/01/23 10:52:06;;;;;;;7.30;2.10;;;;;;;;;;5077062;28;20380;-81
2024/01/23 10:54:32;;;;;;;5.85;1.55;;;;;;;;;;5076479;28;20411;-81
2024/01/23 10:57:04;;;;;;;4.00;1.67;;;;;;;;;;5077139;28;20379;-81
2024/01/23 10:59:31;;;;;;;5.32;1.63;;;;;;;;;;5077068;28;20384;-81
2024/01/23 11:02:03;;;;;;;4.43;1.50;;;;;;;;;;5077463;28;20443;-81
2024/01/23 11:04:29;;;;;;;7.68;1.77;;;;;;;;;;5076109;28;20391;-81
2024/01/23 11:07:18;;;;;;;5.13;1.83;;;;;;;;;;5076011;28;20378;-81
2024/01/23 11:09:54;;;;;;;6.00;1.63;;;;;;;;;;5075836;28;20407;-81
2024/01/23 11:12:25;;;;;;;5.60;1.80;;;;;;;;;;5076444;28;20443;-79
2024/01/23 11:14:53;;;;;;;6.20;1.50;;;;;;;;;;5056705;28;20368;-79
2024/01/23 11:17:21;;;;;;;5.27;1.90;;;;;;;;;;5075726;28;20388;-79
2024/01/23 11:19:49;;;;;;;9.25;2.40;;;;;;;;;;5074752;28;20383;-79
2024/01/23 11:22:21;;;;;;;7.55;2.50;;;;;;;;;;5075980;28;20392;-79
2024/01/23 11:24:48;;;;;;;6.88;2.00;;;;;;;;;;5075150;28;20852;-79
2024/01/23 11:27:20;;;;;;;8.98;2.40;;;;;;;;;;5074767;28;20388;-79
2024/01/23 11:29:48;;;;;;;17.13;3.08;;;;;;;;;;5074104;28;20400;-77
2024/01/23 11:32:19;;;;;;;5.28;1.90;;;;;;;;;;5074588;28;20391;-79
2024/01/23 11:34:45;;;;;;;7.15;1.77;;;;;;;;;;5075249;28;20837;-79
2024/01/23 11:37:29;;;;;;;7.23;2.17;;;;;;;;;;5074784;28;20430;-79
2024/01/23 11:39:55;;;;;;;6.35;1.83;;;;;;;;;;5074649;28;20398;-79
2024/01/23 11:42:21;;;;;;;8.13;1.73;;;;;;;;;;5075445;28;20384;-79
2024/01/23 11:44:47;;;;;;;6.82;1.73;;;;;;;;;;5074987;28;20376;-79
2024/01/23 11:47:13;;;;;;;5.95;1.75;;;;;;;;;;5075236;28;20441;-79
2024/01/23 11:49:39;;;;;;;8.17;1.93;;;;;;;;;;5076160;28;20494;-79
2024/01/23 11:52:05;;;;;;;6.72;2.58;;;;;;;;;;5073988;28;20914;-79
2024/01/23 11:54:31;;;;;;;6.97;1.77;;;;;;;;;;5073034;28;20377;-79
2024/01/23 11:56:58;;;;;;;5.50;1.73;;;;;;;;;;5074118;28;20400;-79
2024/01/23 11:59:24;;;;;;;7.10;1.73;;;;;;;;;;5074470;28;20372;-79
2024/01/23 12:01:50;;;;;;;7.20;1.58;;;;;;;;;;5070810;28;20786;-79
2024/01/23 12:04:16;;;;;;;6.03;1.90;;;;;;;;;;5074535;28;20376;-79
2024/01/23 12:06:42;;;;;;;7.10;2.22;;;;;;;;;;5074733;28;20399;-79
2024/01/23 12:09:08;;;;;;;6.67;1.70;;;;;;;;;;5074582;28;20407;-79
2024/01/23 12:11:36;;;;;;;6.22;2.22;;;;;;;;;;5057019;28;20380;-79
2024/01/23 12:14:02;;;;;;;9.88;2.42;;;;;;;;;;5074127;28;20383;-79
2024/01/23 12:16:28;;;;;;;10.50;2.40;;;;;;;;;;5074087;28;20390;-79
2024/01/23 12:18:57;;;;;;;8.50;1.77;;;;;;;;;;5073601;28;20845;-79
2024/01/23 12:21:23;;;;;;;6.10;2.05;;;;;;;;;;5073745;28;20738;-79
2024/01/23 12:23:49;;;;;;;7.57;2.00;;;;;;;;;;5074562;28;20372;-79
2024/01/23 12:26:17;;;;;;;7.38;1.88;;;;;;;;;;5075233;28;20383;-79
2024/01/23 12:28:44;;;;;;;6.43;1.90;;;;;;;;;;5073981;28;20502;-79
2024/01/23 12:31:11;;;;;;;7.20;2.08;;;;;;;;;;5074855;28;20458;-79
2024/01/23 12:33:38;;;;;;;9.57;2.05;;;;;;;;;;5075574;28;20380;-79
2024/01/23 12:36:05;;;;;;;9.95;2.15;;;;;;;;;;5074838;28;20403;-79
2024/01/23 12:38:31;;;;;;;7.15;1.98;;;;;;;;;;5075015;28;20799;-79
2024/01/23 12:41:01;;;;;;;8.40;2.67;;;;;;;;;;5075052;28;20399;-79
2024/01/23 12:43:27;;;;;;;10.10;2.60;;;;;;;;;;5074698;28;20387;-79
2024/01/23 12:45:53;;;;;;;7.10;2.40;;;;;;;;;;5074475;28;20838;-78
2024/01/23 12:48:21;;;;;;;10.63;2.58;;;;;;;;;;5074426;28;20404;-79
2024/01/23 12:50:47;;;;;;;7.18;2.20;;;;;;;;;;5057208;28;20433;-79
2024/01/23 12:53:13;;;;;;;7.25;2.13;;;;;;;;;;5074799;28;20387;-79
2024/01/23 12:55:39;;;;;;;7.95;2.10;;;;;;;;;;5075058;28;20379;-79
2024/01/23 12:58:09;;;;;;;6.40;2.00;;;;;;;;;;5074341;28;20482;-79
2024/01/23 13:00:35;;;;;;;6.88;2.38;;;;;;;;;;5074002;28;20379;-79
2024/01/23 13:03:04;;;;;;;8.00;1.98;;;;;;;;;;5073898;28;20405;-79
2024/01/23 13:05:29;;;;;;;6.00;2.20;;;;;;;;;;5073944;28;20372;-79
2024/01/23 13:07:56;;;;;;;9.27;2.38;;;;;;;;;;5073525;28;20372;-78
2024/01/23 13:10:21;;;;;;;7.40;2.15;;;;;;;;;;5073966;28;20384;-79
2024/01/23 13:12:47;;;;;;;10.23;2.80;;;;;;;;;;5073914;28;20389;-79
2024/01/23 13:15:14;;;;;;;8.30;2.20;;;;;;;;;;5074498;28;20376;-78
2024/01/23 13:17:40;;;;;;;7.88;2.40;;;;;;;;;;5074651;28;20505;-79
2024/01/23 13:20:10;;;;;;;9.13;2.10;;;;;;;;;;5074192;28;20423;-79
2024/01/23 13:22:43;;;;;;;10.53;2.40;;;;;;;;;;5073909;28;20371;-78
2024/01/23 13:25:11;;;;;;;10.30;2.30;;;;;;;;;;5073970;28;20403;-79
2024/01/23 13:27:37;;;;;;;8.10;2.15;;;;;;;;;;5073714;28;20713;-79
2024/01/23 13:30:04;;;;;;;6.73;2.17;;;;;;;;;;5074440;28;20399;-79
2024/01/23 13:32:30;;;;;;;6.63;1.73;;;;;;;;;;5074038;28;20451;-79
2024/01/23 13:34:56;;;;;;;8.40;2.03;;;;;;;;;;5073614;28;20383;-79
2024/01/23 13:37:22;;;;;;;5.90;1.77;;;;;;;;;;5076914;28;20379;-78
2024/01/23 13:39:48;;;;;;;8.07;2.25;;;;;;;;;;5077543;28;20427;-78
2024/01/23 13:42:14;;;;;;;8.05;2.08;;;;;;;;;;5077421;28;20911;-78
2024/01/23 13:44:40;;;;;;;9.10;2.27;;;;;;;;;;5077317;28;20910;-78
2024/01/23 13:47:07;;;;;;;6.43;2.05;;;;;;;;;;5077669;28;20423;-79
2024/01/23 13:49:33;;;;;;;8.73;2.50;;;;;;;;;;5058927;28;20434;-78
2024/01/23 13:51:59;;;;;;;10.53;2.60;;;;;;;;;;5077088;28;20795;-80
2024/01/23 13:54:25;;;;;;;8.45;1.83;;;;;;;;;;5076992;28;20380;-81
2024/01/23 13:56:51;;;;;;;9.07;2.00;;;;;;;;;;5077665;28;20399;-81
2024/01/23 13:59:17;;;;;;;7.15;2.10;;;;;;;;;;5077508;28;20383;-81
2024/01/23 14:01:43;;;;;;;8.27;2.17;;;;;;;;;;5077667;28;20383;-81
2024/01/23 14:04:09;;;;;;;10.93;2.38;;;;;;;;;;5064493;28;20393;-81
2024/01/23 14:06:35;;;;;;;6.68;2.20;;;;;;;;;;5057863;28;20393;-81
2024/01/23 14:09:01;;;;;;;9.65;2.47;;;;;;;;;;5057566;28;20401;-81
2024/01/23 14:11:27;;;;;;;11.13;2.50;;;;;;;;;;5057079;28;20377;-81
2024/01/23 14:13:53;;;;;;;9.50;2.58;;;;;;;;;;5056662;28;20396;-81
2024/01/23 14:16:19;;;;;;;7.05;2.28;;;;;;;;;;5039315;28;20879;-81
2024/01/23 14:18:45;;;;;;;8.17;2.93;;;;;;;;;;5057284;28;20381;-81
2024/01/23 14:21:12;;;;;;;9.43;2.55;;;;;;;;;;5056941;28;21006;-81
2024/01/23 14:23:38;;;;;;;8.73;2.30;;;;;;;;;;5061208;28;20742;-81
2024/01/23 14:26:05;;;;;;;8.52;2.53;;;;;;;;;;5077065;28;20379;-81
2024/01/23 14:28:31;;;;;;;6.47;2.10;;;;;;;;;;5076934;28;20440;-81
2024/01/23 14:30:57;;;;;;;12.40;2.80;;;;;;;;;;5077221;28;20433;-81
2024/01/23 14:33:23;;;;;;;6.40;2.07;;;;;;;;;;5077069;28;20380;-81
2024/01/23 14:35:49;;;;;;;10.20;2.88;;;;;;;;;;5076573;28;20375;-81
2024/01/23 14:38:15;;;;;;;9.70;2.23;;;;;;;;;;5076976;28;20807;-81
2024/01/23 14:40:41;;;;;;;9.68;3.70;;;;;;;;;;5076896;28;20427;-81
2024/01/23 14:43:07;;;;;;;10.05;3.42;;;;;;;;;;5076872;28;20390;-81